Time;durP1;ratioP1;P1;durP2;ratioP2;P2;SDS_P1;SDS_P2;PMS_P1;PMS_P2;Temp;Humidity;BMP_temperature;BMP_pressure;BME280_temperature;BME280_humidity;BME280_pressure;Samples;Min_cycle;Max_cycle;Signal;HPM_P1;HPM_P2
2021/12/03 00:00:29;;;;;;;3.30;2.17;;;19.10;52.10;;;;;;4957936;29;20173;-22
2021/12/03 00:02:55;;;;;;;3.07;2.40;;;19.10;52.20;;;;;;4956978;29;20247;-21
2021/12/03 00:05:22;;;;;;;3.57;2.40;;;19.00;52.20;;;;;;4972674;28;20175;-22
2021/12/03 00:07:48;;;;;;;3.17;2.30;;;18.90;52.10;;;;;;4955853;29;20240;-22
2021/12/03 00:10:16;;;;;;;3.73;2.60;;;18.90;52.30;;;;;;4955678;29;20171;-22
2021/12/03 00:12:42;;;;;;;3.03;2.40;;;18.80;52.40;;;;;;4957065;28;20177;-24
2021/12/03 00:15:11;;;;;;;4.87;2.20;;;18.80;52.50;;;;;;4956895;29;20193;-25
2021/12/03 00:17:37;;;;;;;4.87;2.67;;;18.70;52.60;;;;;;4956918;28;20328;-21
2021/12/03 00:20:06;;;;;;;3.27;2.50;;;18.70;52.60;;;;;;4957002;29;20189;-23
2021/12/03 00:22:32;;;;;;;4.37;2.63;;;18.70;52.80;;;;;;4957816;29;20179;-25
2021/12/03 00:24:58;;;;;;;3.93;2.63;;;18.60;52.70;;;;;;4956360;28;20222;-27
2021/12/03 00:27:24;;;;;;;3.73;2.30;;;18.60;52.70;;;;;;4958161;29;20210;-26
2021/12/03 00:29:50;;;;;;;3.43;2.33;;;18.60;52.80;;;;;;4957695;28;20187;-26
2021/12/03 00:32:16;;;;;;;3.17;2.50;;;18.60;52.90;;;;;;4957384;29;20178;-22
2021/12/03 00:34:42;;;;;;;4.00;2.50;;;18.50;53.00;;;;;;4955924;29;20365;-23
2021/12/03 00:37:07;;;;;;;3.10;2.40;;;18.50;52.90;;;;;;4958295;29;20173;-22
2021/12/03 00:39:33;;;;;;;3.37;2.30;;;18.50;53.00;;;;;;4957352;29;20238;-24
2021/12/03 00:42:02;;;;;;;4.17;2.40;;;18.50;53.00;;;;;;4957667;29;20205;-26
2021/12/03 00:44:29;;;;;;;3.93;2.50;;;18.50;53.00;;;;;;4957183;28;20213;-23
2021/12/03 00:46:58;;;;;;;3.43;2.33;;;18.40;53.00;;;;;;4956479;29;20269;-23
2021/12/03 00:49:25;;;;;;;3.23;2.10;;;18.40;53.20;;;;;;4957975;28;20197;-25
2021/12/03 00:51:51;;;;;;;2.97;2.13;;;18.40;53.10;;;;;;4958203;28;20173;-24
2021/12/03 00:54:17;;;;;;;3.07;2.20;;;18.40;53.20;;;;;;4957690;29;20186;-23
2021/12/03 00:56:43;;;;;;;2.63;2.00;;;18.40;53.20;;;;;;4957738;29;20466;-25
2021/12/03 00:59:09;;;;;;;2.50;2.03;;;18.40;53.30;;;;;;4973386;28;20230;-24
2021/12/03 01:01:35;;;;;;;2.97;2.13;;;18.30;53.40;;;;;;4956205;28;20433;-21
2021/12/03 01:04:02;;;;;;;2.63;2.03;;;18.30;53.50;;;;;;4956609;29;20212;-23
2021/12/03 01:06:28;;;;;;;2.43;1.93;;;18.30;53.50;;;;;;4956412;29;20172;-23
2021/12/03 01:08:54;;;;;;;3.07;2.10;;;18.30;53.60;;;;;;4957276;29;20171;-23
2021/12/03 01:11:19;;;;;;;2.10;1.70;;;18.20;53.70;;;;;;4955840;28;20209;-20
2021/12/03 01:13:45;;;;;;;3.13;2.23;;;18.20;53.70;;;;;;4956042;29;20187;-26
2021/12/03 01:16:13;;;;;;;2.27;2.07;;;18.20;53.70;;;;;;4957787;29;20216;-22
2021/12/03 01:18:40;;;;;;;2.83;2.20;;;18.20;53.70;;;;;;4956543;29;20192;-22
2021/12/03 01:21:07;;;;;;;2.17;1.90;;;18.20;53.80;;;;;;4956871;28;20634;-21
2021/12/03 01:23:33;;;;;;;2.90;1.87;;;18.10;53.80;;;;;;4956118;29;20231;-20
2021/12/03 01:25:59;;;;;;;2.37;2.07;;;18.10;53.90;;;;;;4956726;29;20337;-24
2021/12/03 01:28:26;;;;;;;2.07;1.70;;;18.10;54.00;;;;;;4956260;29;20178;-23
2021/12/03 01:30:54;;;;;;;3.10;2.00;;;18.10;54.10;;;;;;4955439;29;20178;-24
2021/12/03 01:33:20;;;;;;;3.17;2.13;;;18.00;54.20;;;;;;4956371;28;20183;-24
2021/12/03 01:35:46;;;;;;;3.00;2.00;;;18.00;54.30;;;;;;4955172;28;20183;-26
2021/12/03 01:38:12;;;;;;;3.17;2.20;;;18.00;54.40;;;;;;4957329;29;20181;-23
2021/12/03 01:40:40;;;;;;;3.27;2.30;;;17.90;54.40;;;;;;4956006;29;20176;-23
2021/12/03 01:43:07;;;;;;;2.47;2.03;;;17.90;54.50;;;;;;4957032;28;20169;-22
2021/12/03 01:45:39;;;;;;;2.60;2.00;;;17.90;54.60;;;;;;4956917;29;20178;-23
2021/12/03 01:48:06;;;;;;;2.30;2.00;;;17.80;54.70;;;;;;4956173;29;20193;-23
2021/12/03 01:50:38;;;;;;;2.70;2.20;;;17.80;54.80;;;;;;4957460;29;20183;-22
2021/12/03 01:53:05;;;;;;;2.87;2.00;;;17.80;54.90;;;;;;4972326;28;20285;-25
2021/12/03 01:55:32;;;;;;;2.83;2.03;;;17.70;54.90;;;;;;4956511;28;20741;-23
2021/12/03 01:57:58;;;;;;;2.73;2.30;;;17.70;55.00;;;;;;4935774;29;20489;-25
2021/12/03 02:00:32;;;;;;;2.73;2.40;;;17.70;55.00;;;;;;4955001;28;20728;-22
2021/12/03 02:02:58;;;;;;;2.97;2.33;;;17.60;55.10;;;;;;4959559;29;20188;-22
2021/12/03 02:05:24;;;;;;;4.43;2.60;;;17.60;55.20;;;;;;4960737;29;20178;-24
2021/12/03 02:07:50;;;;;;;3.00;2.20;;;17.60;55.30;;;;;;4960006;28;20179;-21
2021/12/03 02:10:19;;;;;;;2.77;2.23;;;17.50;55.40;;;;;;4960736;29;20177;-21
2021/12/03 02:12:45;;;;;;;2.67;2.37;;;17.50;55.50;;;;;;4961066;28;20505;-22
2021/12/03 02:15:12;;;;;;;3.13;2.53;;;17.40;55.60;;;;;;4959322;29;20271;-25
2021/12/03 02:17:38;;;;;;;3.33;2.50;;;17.40;55.70;;;;;;4960389;28;20572;-22
2021/12/03 02:20:08;;;;;;;3.53;2.80;;;17.40;55.70;;;;;;4959925;28;20531;-23
2021/12/03 02:22:34;;;;;;;4.03;2.70;;;17.40;55.80;;;;;;4960476;28;20178;-24
2021/12/03 02:24:59;;;;;;;3.30;2.43;;;17.30;55.80;;;;;;4961228;29;20213;-22
2021/12/03 02:27:25;;;;;;;2.83;2.57;;;17.30;56.00;;;;;;4976123;28;20173;-25
2021/12/03 02:29:51;;;;;;;3.10;2.50;;;17.30;56.00;;;;;;4962362;28;20583;-22
2021/12/03 02:32:17;;;;;;;3.67;3.00;;;17.20;56.00;;;;;;4959758;29;20176;-25
2021/12/03 02:34:42;;;;;;;2.73;2.53;;;17.20;56.20;;;;;;4960114;29;20208;-24
2021/12/03 02:37:08;;;;;;;3.07;2.60;;;17.20;56.30;;;;;;4959288;28;20457;-23
2021/12/03 02:39:34;;;;;;;3.10;2.63;;;17.10;56.40;;;;;;4959758;28;20330;-23
2021/12/03 02:42:00;;;;;;;3.00;2.70;;;17.10;56.50;;;;;;4959948;29;20513;-26
2021/12/03 02:44:26;;;;;;;2.80;2.57;;;17.10;56.50;;;;;;4976706;28;20266;-23
2021/12/03 02:46:51;;;;;;;3.63;2.90;;;17.10;56.60;;;;;;4960472;28;20172;-22
2021/12/03 02:49:17;;;;;;;2.80;2.50;;;17.00;56.70;;;;;;4976614;28;20182;-23
2021/12/03 02:51:43;;;;;;;2.67;2.40;;;17.00;56.70;;;;;;4959753;29;20200;-23
2021/12/03 02:54:10;;;;;;;2.83;2.50;;;17.00;56.90;;;;;;4958860;28;20268;-22
2021/12/03 02:56:36;;;;;;;2.50;2.30;;;16.90;56.90;;;;;;4960882;29;20473;-22
2021/12/03 02:59:02;;;;;;;2.60;2.40;;;16.90;56.90;;;;;;4960056;29;20602;-23
2021/12/03 03:01:28;;;;;;;2.93;2.63;;;16.90;57.00;;;;;;4961000;29;20270;-22
2021/12/03 03:03:54;;;;;;;2.87;2.57;;;16.90;57.10;;;;;;4960171;28;20277;-22
2021/12/03 03:06:20;;;;;;;2.97;2.40;;;16.90;57.20;;;;;;4975757;28;20179;-26
2021/12/03 03:08:47;;;;;;;3.17;2.50;;;16.80;57.20;;;;;;4960063;29;20598;-25
2021/12/03 03:11:16;;;;;;;3.23;2.40;;;16.80;57.20;;;;;;4959952;28;20163;-23
2021/12/03 03:13:42;;;;;;;2.97;2.67;;;16.80;57.40;;;;;;4959921;28;20187;-20
2021/12/03 03:16:08;;;;;;;2.63;2.40;;;16.70;57.40;;;;;;4961125;29;20184;-23
2021/12/03 03:18:33;;;;;;;2.60;2.40;;;16.70;57.50;;;;;;4959125;28;20181;-23
2021/12/03 03:21:02;;;;;;;2.80;2.40;;;16.70;57.50;;;;;;4959017;28;20194;-24
2021/12/03 03:23:28;;;;;;;3.20;2.53;;;16.70;57.50;;;;;;4959246;28;20214;-23
2021/12/03 03:25:54;;;;;;;3.67;2.30;;;16.80;57.40;;;;;;4975618;28;20189;-23
2021/12/03 03:28:22;;;;;;;2.80;2.50;;;16.90;56.90;;;;;;4974728;28;20192;-21
2021/12/03 03:30:50;;;;;;;3.20;2.60;;;17.00;56.50;;;;;;4960351;28;20174;-23
2021/12/03 03:33:17;;;;;;;2.80;2.30;;;17.10;56.10;;;;;;4960205;29;20165;-23
2021/12/03 03:35:43;;;;;;;3.00;2.50;;;17.10;55.90;;;;;;4960035;28;20169;-23
2021/12/03 03:38:09;;;;;;;3.67;2.37;;;17.10;55.90;;;;;;4960240;29;20631;-23
2021/12/03 03:40:36;;;;;;;2.97;2.43;;;17.10;56.00;;;;;;4959763;29;20186;-25
2021/12/03 03:43:04;;;;;;;3.53;2.63;;;17.00;56.10;;;;;;4960190;29;20558;-25
2021/12/03 03:45:30;;;;;;;3.10;2.80;;;17.00;56.20;;;;;;4960636;28;20172;-22
2021/12/03 03:47:57;;;;;;;3.23;2.50;;;16.90;56.30;;;;;;4959682;29;20172;-24
2021/12/03 03:50:24;;;;;;;2.53;2.33;;;16.80;56.50;;;;;;4959884;29;20175;-22
2021/12/03 03:52:53;;;;;;;3.93;3.00;;;16.80;56.60;;;;;;4959142;28;20180;-27
2021/12/03 03:55:20;;;;;;;3.87;2.40;;;16.70;56.70;;;;;;4959351;28;20176;-19
2021/12/03 03:57:48;;;;;;;4.80;2.80;;;16.70;56.90;;;;;;4959250;28;20259;-23
2021/12/03 04:00:17;;;;;;;3.20;2.37;;;16.60;57.00;;;;;;4957344;29;20180;-23
2021/12/03 04:02:44;;;;;;;2.97;2.60;;;16.60;57.10;;;;;;4957189;28;20344;-24
2021/12/03 04:05:11;;;;;;;2.80;2.50;;;16.60;57.20;;;;;;4957654;29;20212;-25
2021/12/03 04:07:37;;;;;;;2.53;2.30;;;16.50;57.20;;;;;;4959443;29;20182;-21
2021/12/03 04:10:05;;;;;;;4.23;2.50;;;16.50;57.40;;;;;;4958678;28;20186;-25
2021/12/03 04:12:32;;;;;;;2.93;2.23;;;16.80;57.30;;;;;;4958567;29;20174;-22
2021/12/03 04:14:57;;;;;;;2.53;2.23;;;19.60;51.70;;;;;;4958109;29;20512;-24
2021/12/03 04:17:23;;;;;;;2.83;2.33;;;20.20;49.00;;;;;;4957988;29;20174;-24
2021/12/03 04:19:49;;;;;;;3.83;2.60;;;20.30;48.30;;;;;;4958402;29;20187;-25
2021/12/03 04:22:17;;;;;;;3.40;2.30;;;20.40;47.90;;;;;;4957654;29;20463;-23
2021/12/03 04:24:44;;;;;;;3.00;2.20;;;20.70;47.50;;;;;;4957869;28;20214;-24
2021/12/03 04:27:10;;;;;;;3.10;2.60;;;21.00;47.00;;;;;;4957120;29;20179;-23
2021/12/03 04:29:36;;;;;;;2.47;2.27;;;21.30;46.50;;;;;;4957253;29;20184;-20
2021/12/03 04:32:02;;;;;;;2.67;2.23;;;21.70;46.10;;;;;;4957530;29;20183;-23
2021/12/03 04:34:28;;;;;;;3.17;2.43;;;22.00;45.50;;;;;;4958306;28;20438;-23
2021/12/03 04:36:54;;;;;;;3.10;2.40;;;22.40;45.10;;;;;;4957114;29;20194;-25
2021/12/03 04:39:20;;;;;;;3.23;2.20;;;22.90;44.50;;;;;;4955849;29;20205;-25
2021/12/03 04:41:46;;;;;;;2.30;2.10;;;23.00;44.10;;;;;;4956617;29;20186;-24
2021/12/03 04:44:11;;;;;;;2.50;2.30;;;23.10;43.90;;;;;;4958357;29;20238;-23
2021/12/03 04:46:37;;;;;;;2.90;2.27;;;23.10;43.90;;;;;;4940535;29;20270;-26
2021/12/03 04:49:03;;;;;;;3.07;2.10;;;23.20;43.80;;;;;;4956401;29;20171;-24
2021/12/03 04:51:29;;;;;;;2.87;2.33;;;23.50;43.50;;;;;;4956569;28;20175;-24
2021/12/03 04:53:55;;;;;;;2.83;2.40;;;23.80;43.20;;;;;;4957569;29;20206;-25
2021/12/03 04:56:21;;;;;;;3.30;2.50;;;23.90;43.00;;;;;;4957705;28;20180;-25
2021/12/03 04:58:46;;;;;;;2.63;2.23;;;23.90;42.90;;;;;;4955858;29;20186;-23
2021/12/03 05:01:12;;;;;;;2.40;2.20;;;24.00;42.90;;;;;;4957354;29;20167;-25
2021/12/03 05:03:38;;;;;;;2.73;2.40;;;24.30;42.80;;;;;;4957280;29;20314;-25
2021/12/03 05:06:08;;;;;;;3.37;2.10;;;24.60;42.40;;;;;;4957679;29;20176;-23
2021/12/03 05:08:33;;;;;;;2.40;2.13;;;24.60;42.10;;;;;;4956756;28;20541;-24
2021/12/03 05:10:59;;;;;;;2.83;2.40;;;24.50;42.30;;;;;;4957009;29;20182;-25
2021/12/03 05:13:32;;;;;;;2.63;2.33;;;24.30;42.40;;;;;;4956032;29;20564;-24
2021/12/03 05:15:58;;;;;;;3.03;2.30;;;24.00;42.50;;;;;;4957294;28;20450;-23
2021/12/03 05:18:27;;;;;;;2.70;2.27;;;23.90;42.80;;;;;;4956099;29;20552;-24
2021/12/03 05:20:55;;;;;;;2.57;2.30;;;23.50;43.10;;;;;;4956626;28;20474;-23
2021/12/03 05:23:23;;;;;;;3.20;2.30;;;23.20;43.40;;;;;;4954900;28;20333;-20
2021/12/03 05:25:51;;;;;;;2.80;2.20;;;22.90;43.60;;;;;;4956017;28;20218;-24
2021/12/03 05:28:18;;;;;;;2.97;2.30;;;22.60;43.90;;;;;;4955340;29;20447;-24
2021/12/03 05:30:44;;;;;;;2.30;2.10;;;22.50;44.20;;;;;;4955657;29;20213;-23
2021/12/03 05:33:10;;;;;;;2.27;2.07;;;22.30;44.50;;;;;;4955261;29;20183;-24
2021/12/03 05:35:36;;;;;;;2.63;2.20;;;22.20;44.60;;;;;;4955666;28;20174;-27
2021/12/03 05:38:02;;;;;;;2.60;2.33;;;21.90;44.80;;;;;;4955359;28;20182;-21
2021/12/03 05:40:29;;;;;;;2.40;1.80;;;21.60;45.10;;;;;;4970112;28;20175;-25
2021/12/03 05:42:55;;;;;;;2.50;2.17;;;21.30;45.50;;;;;;4954794;29;20176;-24
2021/12/03 05:45:27;;;;;;;2.80;2.20;;;21.00;45.90;;;;;;4954400;29;20220;-25
2021/12/03 05:47:54;;;;;;;3.43;2.30;;;20.70;46.30;;;;;;4953956;29;20547;-22
2021/12/03 05:50:21;;;;;;;3.90;1.80;;;20.40;46.70;;;;;;4954778;28;20189;-25
2021/12/03 05:52:48;;;;;;;2.97;2.20;;;20.20;47.20;;;;;;4953100;28;20408;-23
2021/12/03 05:55:15;;;;;;;3.80;2.33;;;20.20;47.40;;;;;;4969148;28;20182;-25
2021/12/03 05:57:42;;;;;;;3.33;2.27;;;20.30;47.30;;;;;;4970645;28;20218;-24
2021/12/03 06:00:14;;;;;;;2.80;2.20;;;21.10;46.70;;;;;;4951642;29;20215;-23
2021/12/03 06:02:40;;;;;;;2.70;2.23;;;22.10;45.70;;;;;;4953540;28;20175;-24
2021/12/03 06:05:07;;;;;;;3.00;2.30;;;23.40;44.30;;;;;;4955159;28;21044;-21
2021/12/03 06:07:32;;;;;;;2.30;1.87;;;24.20;43.00;;;;;;4970834;28;20190;-25
2021/12/03 06:09:58;;;;;;;2.30;1.93;;;24.40;42.50;;;;;;4975673;28;20241;-23
2021/12/03 06:12:24;;;;;;;2.83;2.00;;;24.10;42.50;;;;;;4975287;28;20186;-23
2021/12/03 06:14:50;;;;;;;3.07;2.10;;;24.10;42.60;;;;;;4975580;28;20281;-23
2021/12/03 06:17:16;;;;;;;2.90;2.40;;;23.90;42.70;;;;;;4974979;28;20498;-25
2021/12/03 06:19:43;;;;;;;2.60;2.20;;;24.10;42.60;;;;;;4972308;28;20275;-23
2021/12/03 06:22:11;;;;;;;2.10;1.80;;;24.10;42.40;;;;;;4956983;28;20555;-24
2021/12/03 06:24:39;;;;;;;2.97;1.90;;;24.10;42.50;;;;;;4957632;28;20237;-22
2021/12/03 06:27:05;;;;;;;2.87;2.30;;;24.00;42.60;;;;;;4957898;28;20184;-23
2021/12/03 06:29:31;;;;;;;4.03;2.20;;;23.80;42.80;;;;;;4955497;28;20182;-24
2021/12/03 06:31:57;;;;;;;3.33;2.23;;;23.70;42.80;;;;;;4934155;29;20183;-27
2021/12/03 06:34:23;;;;;;;2.40;2.00;;;23.70;42.80;;;;;;4950570;29;20207;-26
2021/12/03 06:36:49;;;;;;;2.93;2.30;;;23.70;42.90;;;;;;4965482;28;20210;-23
2021/12/03 06:39:15;;;;;;;2.83;1.97;;;23.80;42.80;;;;;;4950963;28;20254;-21
2021/12/03 06:41:41;;;;;;;3.03;2.30;;;23.70;42.80;;;;;;4950736;29;20242;-22
2021/12/03 06:44:08;;;;;;;2.60;2.00;;;23.50;42.90;;;;;;4949781;29;20289;-24
2021/12/03 06:46:35;;;;;;;3.10;2.00;;;23.30;43.20;;;;;;4950855;28;20291;-24
2021/12/03 06:49:01;;;;;;;2.80;2.13;;;23.20;43.30;;;;;;4953718;28;20990;-24
2021/12/03 06:51:27;;;;;;;2.83;2.20;;;22.90;43.50;;;;;;4953678;28;20238;-23
2021/12/03 06:54:02;;;;;;;1.90;1.73;;;22.70;43.90;;;;;;4954478;28;20180;-23
2021/12/03 06:56:44;;;;;;;3.17;2.10;;;22.50;44.10;;;;;;4953951;28;20171;-24
2021/12/03 06:59:13;;;;;;;2.43;2.10;;;22.30;44.30;;;;;;4953948;28;20380;-24
2021/12/03 07:01:39;;;;;;;2.90;2.20;;;22.10;44.90;;;;;;4954284;28;20578;-22
2021/12/03 07:04:05;;;;;;;3.07;1.90;;;21.90;44.80;;;;;;4954780;29;20207;-23
2021/12/03 07:06:31;;;;;;;2.20;2.00;;;21.80;45.00;;;;;;4969534;28;20263;-21
2021/12/03 07:08:57;;;;;;;3.00;2.13;;;21.80;45.20;;;;;;4952285;29;20474;-23
2021/12/03 07:11:23;;;;;;;4.00;2.07;;;21.90;45.20;;;;;;4972085;28;20556;-22
2021/12/03 07:13:51;;;;;;;2.50;1.90;;;22.10;45.00;;;;;;4975946;28;20178;-21
2021/12/03 07:16:17;;;;;;;3.03;1.90;;;22.40;44.80;;;;;;4978089;28;20210;-24
2021/12/03 07:18:43;;;;;;;3.00;2.17;;;22.80;44.40;;;;;;4979139;28;20183;-22
2021/12/03 07:21:10;;;;;;;2.43;1.90;;;23.40;43.90;;;;;;4975878;28;20172;-23
2021/12/03 07:23:36;;;;;;;2.50;1.83;;;23.90;43.20;;;;;;4957944;29;20290;-27
2021/12/03 07:26:03;;;;;;;2.70;2.13;;;24.40;42.60;;;;;;4968421;28;20236;-24
2021/12/03 07:28:31;;;;;;;3.47;2.20;;;24.50;42.40;;;;;;4973575;28;20281;-22
2021/12/03 07:30:57;;;;;;;2.90;2.27;;;24.70;42.20;;;;;;4958841;29;20182;-23
2021/12/03 07:33:29;;;;;;;2.67;2.10;;;25.10;41.90;;;;;;4958695;29;20168;-22
2021/12/03 07:35:55;;;;;;;2.80;2.10;;;25.00;41.80;;;;;;4959152;28;20467;-23
2021/12/03 07:38:21;;;;;;;3.43;2.40;;;25.00;41.80;;;;;;4959496;29;20635;-23
2021/12/03 07:40:49;;;;;;;7.07;2.50;;;24.90;42.00;;;;;;4960032;28;20266;-24
2021/12/03 07:43:17;;;;;;;5.30;2.10;;;24.60;42.20;;;;;;4959794;28;20583;-23
2021/12/03 07:45:44;;;;;;;5.57;2.00;;;24.50;42.40;;;;;;4961208;28;20743;-21
2021/12/03 07:48:11;;;;;;;4.33;2.30;;;24.40;42.50;;;;;;4959021;28;20171;-23
2021/12/03 07:50:40;;;;;;;8.03;2.80;;;24.20;42.70;;;;;;4959834;28;20183;-22
2021/12/03 07:53:08;;;;;;;4.27;2.40;;;24.30;42.80;;;;;;4958433;29;20171;-23
2021/12/03 07:55:36;;;;;;;7.13;2.83;;;24.30;42.80;;;;;;4953744;28;20198;-22
2021/12/03 07:58:04;;;;;;;5.07;2.60;;;24.00;43.10;;;;;;4952376;28;20180;-22
2021/12/03 08:00:54;;;;;;;5.67;3.00;;;23.70;43.40;;;;;;4953014;28;20188;-23
2021/12/03 08:03:21;;;;;;;5.40;2.43;;;23.50;43.60;;;;;;4952594;28;20287;-23
2021/12/03 08:05:47;;;;;;;7.17;2.33;;;23.30;43.80;;;;;;4953761;28;20168;-27
2021/12/03 08:08:13;;;;;;;7.37;2.70;;;23.10;44.10;;;;;;4953119;28;20549;-22
2021/12/03 08:10:41;;;;;;;6.40;3.17;;;22.90;44.40;;;;;;4968007;28;20186;-24
2021/12/03 08:13:07;;;;;;;7.23;2.57;;;22.70;44.60;;;;;;4952291;28;20179;-23
2021/12/03 08:15:37;;;;;;;7.97;2.80;;;22.60;44.80;;;;;;4967748;28;20179;-24
2021/12/03 08:18:07;;;;;;;6.13;2.60;;;22.50;44.90;;;;;;4952392;28;20172;-22
2021/12/03 08:20:35;;;;;;;3.67;2.47;;;22.40;45.00;;;;;;4951541;29;20336;-24
2021/12/03 08:23:04;;;;;;;6.27;2.80;;;22.30;45.20;;;;;;4952341;28;20277;-20
2021/12/03 08:25:31;;;;;;;6.33;2.90;;;22.00;45.50;;;;;;4952459;28;20312;-23
2021/12/03 08:27:57;;;;;;;8.77;2.87;;;21.60;45.80;;;;;;4953103;28;20180;-23
2021/12/03 08:30:31;;;;;;;4.77;2.80;;;21.50;46.50;;;;;;4968639;28;20238;-25
2021/12/03 08:32:59;;;;;;;6.60;3.20;;;21.30;46.40;;;;;;4952928;29;20182;-26
2021/12/03 08:35:26;;;;;;;6.73;3.00;;;21.10;46.70;;;;;;4953013;28;20178;-23
2021/12/03 08:37:53;;;;;;;5.43;2.97;;;20.90;47.00;;;;;;4952281;28;20197;-22
2021/12/03 08:40:24;;;;;;;6.73;2.90;;;20.70;47.20;;;;;;4954106;28;20182;-23
2021/12/03 08:42:53;;;;;;;9.63;3.10;;;20.40;47.70;;;;;;4951493;28;20194;-23
2021/12/03 08:45:21;;;;;;;5.80;2.87;;;20.10;48.00;;;;;;4952758;28;20233;-22
2021/12/03 08:47:57;;;;;;;6.63;2.63;;;19.90;48.40;;;;;;4951569;28;20179;-23
2021/12/03 08:50:30;;;;;;;4.87;2.77;;;19.70;48.80;;;;;;4954060;28;20521;-23
2021/12/03 08:53:21;;;;;;;5.80;2.60;;;19.50;49.10;;;;;;4967651;28;20176;-22
2021/12/03 08:55:48;;;;;;;5.50;2.80;;;19.30;49.50;;;;;;4953083;28;20180;-23
2021/12/03 08:58:16;;;;;;;5.20;3.10;;;19.40;49.80;;;;;;4951732;28;20239;-24
2021/12/03 09:00:45;;;;;;;6.23;2.77;;;20.50;48.90;;;;;;4951360;28;20160;-21
2021/12/03 09:03:12;;;;;;;7.33;2.77;;;22.30;46.70;;;;;;4952333;28;20171;-22
2021/12/03 09:05:44;;;;;;;6.30;2.85;;;23.00;45.20;;;;;;4950145;28;20210;-21
2021/12/03 09:08:10;;;;;;;7.20;2.93;;;23.30;44.50;;;;;;4951482;28;20246;-24
2021/12/03 09:10:37;;;;;;;5.90;2.47;;;23.20;44.40;;;;;;4951505;28;20209;-23
2021/12/03 09:13:06;;;;;;;5.33;2.33;;;23.20;44.30;;;;;;4950871;28;20179;-24
2021/12/03 09:15:50;;;;;;;7.30;2.70;;;23.50;44.00;;;;;;4951418;28;20202;-21
2021/12/03 09:18:26;;;;;;;6.30;2.67;;;23.80;43.70;;;;;;4950648;28;20190;-23
2021/12/03 09:20:57;;;;;;;5.10;2.40;;;24.00;43.40;;;;;;4952025;28;20265;-22
2021/12/03 09:26:04;;;;;;;5.33;2.53;;;24.30;43.10;;;;;;4951920;28;20223;-24
2021/12/03 09:28:31;;;;;;;5.53;2.40;;;24.30;43.00;;;;;;4951887;28;20270;-22
2021/12/03 09:30:59;;;;;;;4.80;2.10;;;24.10;43.00;;;;;;4951130;29;20172;-22
2021/12/03 09:33:28;;;;;;;3.70;2.30;;;24.10;43.00;;;;;;4951016;28;20279;-23
2021/12/03 09:36:00;;;;;;;5.67;2.50;;;24.00;42.90;;;;;;4949525;28;20168;-24
2021/12/03 09:38:31;;;;;;;5.30;2.13;;;23.90;43.20;;;;;;4966951;28;20168;-23
2021/12/03 09:41:07;;;;;;;5.87;2.60;;;23.70;43.10;;;;;;4950116;28;20244;-26
2021/12/03 09:57:07;;;;;;;4.50;2.07;;;22.30;44.80;;;;;;4973818;28;20244;-25
2021/12/03 10:02:48;;;;;;;5.27;2.50;;;21.80;45.40;;;;;;4966016;28;20194;-23
2021/12/03 10:13:38;;;;;;;5.50;1.93;;;20.70;46.50;;;;;;4971082;28;20183;-25
2021/12/03 10:16:36;;;;;;;5.23;2.00;;;20.50;46.80;;;;;;4971339;28;20459;-23
2021/12/03 10:19:23;;;;;;;4.00;2.10;;;20.40;47.10;;;;;;4969163;28;20182;-23
2021/12/03 10:23:16;;;;;;;5.27;2.20;;;20.20;47.40;;;;;;4968956;28;20311;-23
2021/12/03 10:24:54;;;;;;;4.70;1.93;;;20.00;47.70;;;;;;4963809;28;20329;-22
2021/12/03 10:27:40;;;;;;;4.17;1.90;;;20.20;47.80;;;;;;4972537;28;20251;-22
2021/12/03 10:38:50;;;;;;;4.17;2.00;;;24.40;42.70;;;;;;4972447;28;20189;-22
2021/12/03 10:41:29;;;;;;;3.40;1.73;;;24.50;42.50;;;;;;4971706;28;20178;-24
2021/12/03 10:44:12;;;;;;;2.73;1.70;;;24.10;42.40;;;;;;4972577;28;20326;-21
2021/12/03 10:55:09;;;;;;;6.33;2.20;;;24.30;42.70;;;;;;4973210;28;20272;-25
2021/12/03 10:57:56;;;;;;;7.33;2.53;;;24.20;42.70;;;;;;4972554;28;20282;-25
2021/12/03 11:15:13;;;;;;;5.73;2.10;;;22.70;44.00;;;;;;4972523;28;20173;-25
2021/12/03 11:26:52;;;;;;;4.30;1.90;;;21.60;45.20;;;;;;4973033;28;20225;-24
2021/12/03 11:31:41;;;;;;;3.40;1.80;;;21.00;45.70;;;;;;4972699;28;20188;-24
2021/12/03 11:37:14;;;;;;;6.17;2.17;;;20.60;46.30;;;;;;4971816;28;20326;-23
2021/12/03 12:01:14;;;;;;;4.53;2.20;;;24.00;42.80;;;;;;4978087;28;20152;-25
2021/12/03 13:46:08;;;;;;;3.07;2.00;;;23.10;42.40;;;;;;4978310;28;20228;-21
2021/12/03 13:59:19;;;;;;;3.30;1.90;;;22.10;43.60;;;;;;4981305;28;20212;-22
2021/12/03 14:01:46;;;;;;;3.03;1.67;;;21.90;43.80;;;;;;4980774;28;20202;-22
2021/12/03 14:13:09;;;;;;;2.67;1.60;;;21.00;44.50;;;;;;4982510;28;20210;-26
2021/12/03 14:43:22;;;;;;;2.80;1.53;;;24.10;41.10;;;;;;4965023;28;20238;-21
2021/12/03 14:51:24;;;;;;;2.63;1.67;;;23.80;41.40;;;;;;4979245;28;20478;-23
2021/12/03 14:57:24;;;;;;;2.60;1.67;;;23.60;41.40;;;;;;4976991;28;20215;-22
2021/12/03 15:00:00;;;;;;;2.77;1.23;;;23.50;41.60;;;;;;4978854;28;20546;-23
2021/12/03 15:02:46;;;;;;;3.57;1.77;;;23.40;41.70;;;;;;4979764;28;20466;-24
2021/12/03 15:05:22;;;;;;;2.40;1.57;;;23.20;41.90;;;;;;4960175;28;20226;-24
2021/12/03 15:07:51;;;;;;;2.80;1.57;;;23.00;42.00;;;;;;4960648;28;20209;-24
2021/12/03 15:10:38;;;;;;;2.63;1.60;;;22.70;42.10;;;;;;4978732;28;20199;-23
2021/12/03 15:13:28;;;;;;;2.07;1.27;;;22.60;42.40;;;;;;4961262;28;20241;-24
2021/12/03 15:18:37;;;;;;;2.80;1.50;;;22.30;42.70;;;;;;4978303;28;20210;-23
2021/12/03 16:09:27;;;;;;;4.13;1.80;;;24.10;40.70;;;;;;4961267;29;20187;-23
2021/12/03 16:14:49;;;;;;;2.93;1.70;;;23.80;41.10;;;;;;4959042;29;20300;-24
2021/12/03 16:25:10;;;;;;;2.70;1.60;;;23.60;41.20;;;;;;4959623;28;20218;-23
2021/12/03 16:43:40;;;;;;;2.73;1.60;;;22.80;42.40;;;;;;4979183;28;20212;-22
2021/12/03 16:44:42;;;;;;;3.80;1.77;;;22.60;42.30;;;;;;4979830;28;20270;-23
2021/12/03 16:47:31;;;;;;;6.40;1.93;;;22.40;42.50;;;;;;4962888;28;20267;-25
2021/12/03 16:52:44;;;;;;;3.10;1.77;;;22.00;42.80;;;;;;4979564;28;20211;-23
2021/12/03 16:55:10;;;;;;;3.27;1.63;;;21.50;43.10;;;;;;4979734;28;20577;-24
2021/12/03 16:57:37;;;;;;;4.47;1.97;;;21.20;43.50;;;;;;4979849;28;20201;-25
2021/12/03 17:02:50;;;;;;;2.37;1.47;;;20.70;44.30;;;;;;4979811;28;20223;-22
2021/12/03 17:05:28;;;;;;;3.30;1.60;;;20.80;44.30;;;;;;4962552;28;20233;-23
2021/12/03 17:28:08;;;;;;;3.97;1.67;;;23.70;41.20;;;;;;4980075;28;20206;-22
2021/12/03 17:54:42;;;;;;;2.10;1.60;;;22.50;42.30;;;;;;4978414;28;20209;-23
2021/12/03 17:56:43;;;;;;;2.00;1.30;;;22.10;42.60;;;;;;4961706;28;20297;-23
2021/12/03 18:08:05;;;;;;;2.40;1.20;;;21.50;43.40;;;;;;4978163;28;20212;-24
2021/12/03 18:56:14;;;;;;;1.50;1.10;;;23.30;41.50;;;;;;4981373;28;20771;-24
2021/12/03 18:58:40;;;;;;;1.47;1.30;;;23.10;42.00;;;;;;4964969;28;20246;-23
2021/12/03 19:01:06;;;;;;;2.10;1.20;;;22.90;42.10;;;;;;4981871;28;20206;-22
2021/12/03 19:03:58;;;;;;;1.30;1.13;;;22.90;42.20;;;;;;4981577;28;20266;-21
2021/12/03 19:09:46;;;;;;;1.37;1.27;;;22.70;42.40;;;;;;4981171;28;20193;-22
2021/12/03 19:14:34;;;;;;;3.50;1.40;;;22.20;42.80;;;;;;4979758;28;20179;-23
2021/12/03 19:17:05;;;;;;;1.83;1.30;;;21.90;43.00;;;;;;4981172;28;20189;-23
2021/12/03 19:19:37;;;;;;;2.23;1.40;;;21.80;43.40;;;;;;4964661;28;20260;-24
2021/12/03 19:22:04;;;;;;;3.90;1.50;;;21.60;43.50;;;;;;4981588;28;20193;-21
2021/12/03 19:24:31;;;;;;;2.33;1.50;;;21.30;43.80;;;;;;4981308;28;20224;-26
2021/12/03 19:26:57;;;;;;;1.87;1.57;;;21.00;44.20;;;;;;4981382;28;20446;-25
2021/12/03 19:29:23;;;;;;;2.13;1.40;;;20.70;44.50;;;;;;4980662;28;20613;-25
2021/12/03 19:31:51;;;;;;;2.43;1.60;;;20.40;44.80;;;;;;4963899;28;20208;-23
2021/12/03 19:34:23;;;;;;;2.20;1.57;;;20.10;44.80;;;;;;4963943;28;20199;-23
2021/12/03 19:36:50;;;;;;;2.00;1.50;;;19.80;45.40;;;;;;4981033;28;20200;-23
2021/12/03 19:39:19;;;;;;;2.67;1.50;;;19.80;45.60;;;;;;4980455;28;20465;-22
2021/12/03 19:41:51;;;;;;;3.57;1.50;;;20.40;45.30;;;;;;4980874;28;20222;-24
2021/12/03 19:44:20;;;;;;;1.57;1.27;;;21.70;44.50;;;;;;4963791;28;20299;-22
2021/12/03 19:46:49;;;;;;;2.53;1.70;;;22.60;42.90;;;;;;4963543;28;20216;-24
2021/12/03 19:52:11;;;;;;;3.20;1.70;;;23.00;42.30;;;;;;4966379;28;20208;-22
2021/12/03 19:54:37;;;;;;;5.87;1.40;;;23.10;42.10;;;;;;4964070;28;20293;-25
2021/12/03 19:57:03;;;;;;;2.57;1.50;;;23.30;42.20;;;;;;4964041;28;20619;-25
2021/12/03 19:59:29;;;;;;;2.40;1.67;;;23.10;41.80;;;;;;4963606;28;20193;-23
2021/12/03 20:01:56;;;;;;;3.20;1.47;;;23.20;42.10;;;;;;4979854;28;20308;-21
2021/12/03 20:04:22;;;;;;;3.63;1.50;;;23.20;42.10;;;;;;4963590;28;20243;-25
2021/12/03 20:06:48;;;;;;;3.27;1.70;;;23.10;42.10;;;;;;4963756;28;20567;-24
2021/12/03 20:09:27;;;;;;;3.90;1.40;;;23.10;42.20;;;;;;4980830;28;20212;-23
2021/12/03 20:11:56;;;;;;;2.57;1.73;;;23.10;42.20;;;;;;4963441;28;20222;-23
2021/12/03 20:14:23;;;;;;;2.40;1.60;;;23.00;42.10;;;;;;4963240;28;20269;-23
2021/12/03 20:19:21;;;;;;;4.10;1.53;;;22.60;42.60;;;;;;4980367;28;20201;-24